sensor_id;sensor_type;location;lat;lon;timestamp;pressure;altitude;pressure_sealevel;temperature;humidity
63535;BME280;55128;50.230;18.944;2023-05-23T00:00:08;98207.44;;;11.90;71.78
63535;BME280;55128;50.230;18.944;2023-05-23T00:05:13;98207.34;;;11.75;72.72
63535;BME280;55128;50.230;18.944;2023-05-23T00:10:14;98199.47;;;11.74;72.74
63535;BME280;55128;50.230;18.944;2023-05-23T00:15:14;98194.84;;;11.61;72.78
63535;BME280;55128;50.230;18.944;2023-05-23T00:20:15;98198.69;;;11.56;72.83
63535;BME280;55128;50.230;18.944;2023-05-23T00:25:16;98194.00;;;11.45;73.24
63535;BME280;55128;50.230;18.944;2023-05-23T00:30:16;98183.91;;;11.36;73.29
63535;BME280;55128;50.230;18.944;2023-05-23T00:35:16;98186.09;;;11.27;73.16
63535;BME280;55128;50.230;18.944;2023-05-23T00:40:17;98185.84;;;11.16;73.28
63535;BME280;55128;50.230;18.944;2023-05-23T00:45:18;98192.28;;;11.12;74.22
63535;BME280;55128;50.230;18.944;2023-05-23T00:50:18;98187.06;;;10.95;74.65
63535;BME280;55128;50.230;18.944;2023-05-23T00:55:20;98179.91;;;10.79;74.86
63535;BME280;55128;50.230;18.944;2023-05-23T01:00:20;98192.09;;;10.83;75.04
63535;BME280;55128;50.230;18.944;2023-05-23T01:05:22;98194.28;;;10.75;75.25
63535;BME280;55128;50.230;18.944;2023-05-23T01:10:26;98188.59;;;10.65;75.62
63535;BME280;55128;50.230;18.944;2023-05-23T01:15:38;98187.31;;;10.57;75.20
63535;BME280;55128;50.230;18.944;2023-05-23T01:20:51;98188.34;;;10.37;76.06
63535;BME280;55128;50.230;18.944;2023-05-23T01:26:03;98182.03;;;10.39;75.92
63535;BME280;55128;50.230;18.944;2023-05-23T01:31:09;98184.91;;;10.17;76.42
63535;BME280;55128;50.230;18.944;2023-05-23T01:36:12;98185.69;;;10.19;77.02
63535;BME280;55128;50.230;18.944;2023-05-23T01:41:13;98174.84;;;10.06;76.93
63535;BME280;55128;50.230;18.944;2023-05-23T01:46:15;98170.81;;;9.99;77.70
63535;BME280;55128;50.230;18.944;2023-05-23T01:51:15;98176.31;;;9.95;76.99
63535;BME280;55128;50.230;18.944;2023-05-23T01:56:16;98181.88;;;9.90;77.94
63535;BME280;55128;50.230;18.944;2023-05-23T02:01:17;98174.22;;;9.84;77.43
63535;BME280;55128;50.230;18.944;2023-05-23T02:06:17;98178.13;;;9.77;78.29
63535;BME280;55128;50.230;18.944;2023-05-23T02:11:18;98177.34;;;9.75;77.76
63535;BME280;55128;50.230;18.944;2023-05-23T02:16:18;98172.63;;;9.62;78.19
63535;BME280;55128;50.230;18.944;2023-05-23T02:21:18;98161.50;;;9.56;77.99
63535;BME280;55128;50.230;18.944;2023-05-23T02:26:19;98167.53;;;9.40;78.78
63535;BME280;55128;50.230;18.944;2023-05-23T02:31:19;98170.28;;;9.39;78.85
63535;BME280;55128;50.230;18.944;2023-05-23T02:36:20;98169.69;;;9.32;79.25
63535;BME280;55128;50.230;18.944;2023-05-23T02:41:20;98167.28;;;9.27;79.43
63535;BME280;55128;50.230;18.944;2023-05-23T02:46:22;98164.41;;;9.32;79.28
63535;BME280;55128;50.230;18.944;2023-05-23T02:51:22;98165.25;;;9.32;79.49
63535;BME280;55128;50.230;18.944;2023-05-23T02:56:22;98157.63;;;9.44;79.19
63535;BME280;55128;50.230;18.944;2023-05-23T03:01:23;98162.81;;;9.47;79.04
63535;BME280;55128;50.230;18.944;2023-05-23T03:06:23;98162.88;;;9.45;79.52
63535;BME280;55128;50.230;18.944;2023-05-23T03:11:24;98159.38;;;9.45;79.80
63535;BME280;55128;50.230;18.944;2023-05-23T03:16:24;98155.31;;;9.55;79.34
63535;BME280;55128;50.230;18.944;2023-05-23T03:21:25;98155.25;;;9.74;78.37
63535;BME280;55128;50.230;18.944;2023-05-23T03:26:25;98139.78;;;9.84;78.29
63535;BME280;55128;50.230;18.944;2023-05-23T03:31:26;98141.72;;;9.80;79.64
63535;BME280;55128;50.230;18.944;2023-05-23T03:36:26;98145.69;;;10.06;78.63
63535;BME280;55128;50.230;18.944;2023-05-23T03:41:27;98142.38;;;10.19;78.61
63535;BME280;55128;50.230;18.944;2023-05-23T03:46:27;98138.56;;;10.24;79.29
63535;BME280;55128;50.230;18.944;2023-05-23T03:51:28;98133.00;;;10.46;79.17
63535;BME280;55128;50.230;18.944;2023-05-23T03:56:28;98139.63;;;10.71;77.94
63535;BME280;55128;50.230;18.944;2023-05-23T04:01:28;98128.63;;;10.95;77.69
63535;BME280;55128;50.230;18.944;2023-05-23T04:06:29;98136.31;;;10.99;78.87
63535;BME280;55128;50.230;18.944;2023-05-23T04:11:30;98134.94;;;11.40;78.78
63535;BME280;55128;50.230;18.944;2023-05-23T04:16:30;98144.47;;;11.90;76.26
63535;BME280;55128;50.230;18.944;2023-05-23T04:21:33;98142.88;;;12.02;76.77
63535;BME280;55128;50.230;18.944;2023-05-23T04:26:33;98137.53;;;12.47;75.68
63535;BME280;55128;50.230;18.944;2023-05-23T04:31:35;98128.94;;;12.84;75.24
63535;BME280;55128;50.230;18.944;2023-05-23T04:36:35;98133.81;;;13.34;72.37
63535;BME280;55128;50.230;18.944;2023-05-23T04:41:38;98130.81;;;14.95;70.12
63535;BME280;55128;50.230;18.944;2023-05-23T04:46:38;98141.34;;;16.53;61.35
63535;BME280;55128;50.230;18.944;2023-05-23T04:51:41;98135.41;;;18.46;55.17
63535;BME280;55128;50.230;18.944;2023-05-23T04:56:42;98142.00;;;19.25;51.80
63535;BME280;55128;50.230;18.944;2023-05-23T05:01:42;98135.84;;;20.42;49.03
63535;BME280;55128;50.230;18.944;2023-05-23T05:06:43;98131.72;;;20.94;46.33
63535;BME280;55128;50.230;18.944;2023-05-23T05:11:43;98133.72;;;22.11;43.42
63535;BME280;55128;50.230;18.944;2023-05-23T05:16:43;98132.53;;;22.14;43.47
63535;BME280;55128;50.230;18.944;2023-05-23T05:21:45;98128.56;;;23.31;40.24
63535;BME280;55128;50.230;18.944;2023-05-23T05:26:46;98123.16;;;23.82;38.72
63535;BME280;55128;50.230;18.944;2023-05-23T05:31:46;98112.66;;;24.20;37.17
63535;BME280;55128;50.230;18.944;2023-05-23T05:36:47;98136.38;;;24.67;35.94
63535;BME280;55128;50.230;18.944;2023-05-23T05:41:48;98130.59;;;24.78;35.47
63535;BME280;55128;50.230;18.944;2023-05-23T05:46:49;98133.53;;;25.56;34.71
63535;BME280;55128;50.230;18.944;2023-05-23T05:51:51;98123.88;;;25.53;34.66
63535;BME280;55128;50.230;18.944;2023-05-23T05:56:53;98121.31;;;26.29;33.77
63535;BME280;55128;50.230;18.944;2023-05-23T06:01:53;98127.53;;;27.50;31.87
63535;BME280;55128;50.230;18.944;2023-05-23T06:06:54;98121.72;;;26.94;32.22
63535;BME280;55128;50.230;18.944;2023-05-23T06:11:54;98119.25;;;27.14;31.87
63535;BME280;55128;50.230;18.944;2023-05-23T06:16:55;98120.88;;;27.08;31.43
63535;BME280;55128;50.230;18.944;2023-05-23T06:21:55;98130.81;;;27.97;30.05
63535;BME280;55128;50.230;18.944;2023-05-23T06:26:55;98126.63;;;28.44;29.88
63535;BME280;55128;50.230;18.944;2023-05-23T06:31:56;98118.78;;;29.68;27.98
63535;BME280;55128;50.230;18.944;2023-05-23T06:36:57;98116.59;;;30.24;27.82
63535;BME280;55128;50.230;18.944;2023-05-23T06:41:57;98114.44;;;30.07;27.26
63535;BME280;55128;50.230;18.944;2023-05-23T06:46:58;98115.69;;;31.17;26.29
63535;BME280;55128;50.230;18.944;2023-05-23T06:51:58;98098.47;;;30.70;27.30
63535;BME280;55128;50.230;18.944;2023-05-23T06:56:59;98104.19;;;29.12;28.67
63535;BME280;55128;50.230;18.944;2023-05-23T07:01:59;98094.13;;;29.61;28.29
63535;BME280;55128;50.230;18.944;2023-05-23T07:07:00;98092.44;;;29.66;28.28
63535;BME280;55128;50.230;18.944;2023-05-23T07:12:01;98098.22;;;29.85;28.00
63535;BME280;55128;50.230;18.944;2023-05-23T07:17:01;98092.00;;;29.56;27.66
63535;BME280;55128;50.230;18.944;2023-05-23T07:22:02;98080.75;;;30.66;27.24
63535;BME280;55128;50.230;18.944;2023-05-23T07:27:02;98083.84;;;29.70;27.73
63535;BME280;55128;50.230;18.944;2023-05-23T07:32:02;98075.56;;;29.50;29.07
63535;BME280;55128;50.230;18.944;2023-05-23T07:37:03;98069.19;;;30.51;28.19
63535;BME280;55128;50.230;18.944;2023-05-23T07:42:03;98079.50;;;31.86;25.23
63535;BME280;55128;50.230;18.944;2023-05-23T07:47:04;98082.63;;;33.34;23.63
63535;BME280;55128;50.230;18.944;2023-05-23T07:52:05;98075.84;;;33.36;23.43
63535;BME280;55128;50.230;18.944;2023-05-23T07:57:06;98072.69;;;34.23;22.22
63535;BME280;55128;50.230;18.944;2023-05-23T08:02:06;98079.94;;;33.94;22.87
63535;BME280;55128;50.230;18.944;2023-05-23T08:07:11;98066.03;;;34.55;23.14
63535;BME280;55128;50.230;18.944;2023-05-23T08:12:15;98064.72;;;35.04;22.05
63535;BME280;55128;50.230;18.944;2023-05-23T08:17:28;98059.91;;;34.76;21.78
63535;BME280;55128;50.230;18.944;2023-05-23T08:33:22;98061.13;;;35.45;20.95
63535;BME280;55128;50.230;18.944;2023-05-23T08:38:28;98056.78;;;36.91;19.90
63535;BME280;55128;50.230;18.944;2023-05-23T08:44:35;98054.44;;;37.66;18.36
63535;BME280;55128;50.230;18.944;2023-05-23T08:50:30;98062.44;;;36.79;19.94
63535;BME280;55128;50.230;18.944;2023-05-23T09:00:42;98055.47;;;36.26;19.86
63535;BME280;55128;50.230;18.944;2023-05-23T09:05:42;98057.38;;;38.83;17.63
63535;BME280;55128;50.230;18.944;2023-05-23T09:10:42;98061.50;;;37.34;19.21
63535;BME280;55128;50.230;18.944;2023-05-23T09:16:30;98066.78;;;37.58;18.18
63535;BME280;55128;50.230;18.944;2023-05-23T09:21:04;98053.44;;;38.69;17.95
63535;BME280;55128;50.230;18.944;2023-05-23T09:26:06;98055.28;;;37.99;17.15
63535;BME280;55128;50.230;18.944;2023-05-23T09:31:08;98050.81;;;37.43;19.06
63535;BME280;55128;50.230;18.944;2023-05-23T09:36:09;98059.34;;;36.97;19.53
63535;BME280;55128;50.230;18.944;2023-05-23T09:41:10;98055.59;;;37.26;17.96
63535;BME280;55128;50.230;18.944;2023-05-23T09:46:13;98041.50;;;35.87;19.48
63535;BME280;55128;50.230;18.944;2023-05-23T09:51:13;98039.53;;;34.77;21.01
63535;BME280;55128;50.230;18.944;2023-05-23T09:56:18;98040.19;;;32.67;23.01
63535;BME280;55128;50.230;18.944;2023-05-23T10:01:20;98027.38;;;31.47;24.24
63535;BME280;55128;50.230;18.944;2023-05-23T10:06:24;98015.06;;;31.56;25.16
63535;BME280;55128;50.230;18.944;2023-05-23T10:16:58;98001.56;;;30.04;27.90
63535;BME280;55128;50.230;18.944;2023-05-23T10:22:05;97996.03;;;29.71;27.67
63535;BME280;55128;50.230;18.944;2023-05-23T10:27:06;97989.31;;;29.60;27.46
63535;BME280;55128;50.230;18.944;2023-05-23T10:32:09;97996.53;;;28.72;28.96
63535;BME280;55128;50.230;18.944;2023-05-23T10:37:26;97980.50;;;29.03;29.01
63535;BME280;55128;50.230;18.944;2023-05-23T10:42:46;97978.72;;;29.37;27.94
63535;BME280;55128;50.230;18.944;2023-05-23T10:47:50;97977.41;;;28.72;29.05
63535;BME280;55128;50.230;18.944;2023-05-23T10:52:52;97976.38;;;28.73;29.61
63535;BME280;55128;50.230;18.944;2023-05-23T10:58:09;97977.91;;;28.47;29.87
63535;BME280;55128;50.230;18.944;2023-05-23T11:03:10;97977.81;;;27.99;30.19
63535;BME280;55128;50.230;18.944;2023-05-23T11:08:12;97963.41;;;28.88;29.22
63535;BME280;55128;50.230;18.944;2023-05-23T11:13:53;97960.81;;;29.28;29.30
63535;BME280;55128;50.230;18.944;2023-05-23T11:19:28;97947.78;;;28.68;30.32
63535;BME280;55128;50.230;18.944;2023-05-23T11:24:52;97952.81;;;27.52;31.62
63535;BME280;55128;50.230;18.944;2023-05-23T11:30:19;97936.16;;;27.68;31.46
63535;BME280;55128;50.230;18.944;2023-05-23T11:35:20;97939.84;;;28.39;30.79
63535;BME280;55128;50.230;18.944;2023-05-23T11:40:32;97920.97;;;28.44;30.79
63535;BME280;55128;50.230;18.944;2023-05-23T11:45:34;97925.00;;;29.03;30.96
63535;BME280;55128;50.230;18.944;2023-05-23T11:50:50;97925.19;;;29.01;30.91
63535;BME280;55128;50.230;18.944;2023-05-23T11:55:55;97938.38;;;28.84;30.34
63535;BME280;55128;50.230;18.944;2023-05-23T12:01:09;97933.34;;;28.88;31.43
63535;BME280;55128;50.230;18.944;2023-05-23T12:06:09;97927.44;;;28.78;30.25
63535;BME280;55128;50.230;18.944;2023-05-23T12:11:10;97948.72;;;28.47;31.98
63535;BME280;55128;50.230;18.944;2023-05-23T12:16:12;97978.28;;;27.23;33.69
63535;BME280;55128;50.230;18.944;2023-05-23T12:21:14;97990.53;;;25.24;38.23
63535;BME280;55128;50.230;18.944;2023-05-23T12:26:15;97996.13;;;24.43;51.29
63535;BME280;55128;50.230;18.944;2023-05-23T12:31:17;98010.00;;;22.66;60.60
63535;BME280;55128;50.230;18.944;2023-05-23T12:36:24;98003.63;;;21.70;61.97
63535;BME280;55128;50.230;18.944;2023-05-23T12:41:25;98002.16;;;21.22;63.84
63535;BME280;55128;50.230;18.944;2023-05-23T12:46:26;97998.63;;;20.76;67.15
63535;BME280;55128;50.230;18.944;2023-05-23T12:51:26;97997.13;;;20.64;65.78
63535;BME280;55128;50.230;18.944;2023-05-23T12:56:36;97992.97;;;20.69;66.35
63535;BME280;55128;50.230;18.944;2023-05-23T13:01:37;97987.88;;;20.66;67.11
63535;BME280;55128;50.230;18.944;2023-05-23T13:06:38;97977.97;;;20.29;66.75
63535;BME280;55128;50.230;18.944;2023-05-23T13:11:40;97969.81;;;20.76;65.32
63535;BME280;55128;50.230;18.944;2023-05-23T13:16:40;97975.00;;;20.60;64.71
63535;BME280;55128;50.230;18.944;2023-05-23T13:21:53;97962.63;;;20.67;63.72
63535;BME280;55128;50.230;18.944;2023-05-23T13:26:53;97968.16;;;20.66;67.99
63535;BME280;55128;50.230;18.944;2023-05-23T13:31:53;97967.81;;;20.96;64.92
63535;BME280;55128;50.230;18.944;2023-05-23T13:36:54;97948.75;;;20.80;64.45
63535;BME280;55128;50.230;18.944;2023-05-23T13:41:55;97951.47;;;21.16;66.88
63535;BME280;55128;50.230;18.944;2023-05-23T13:46:56;97951.94;;;21.29;63.06
63535;BME280;55128;50.230;18.944;2023-05-23T13:51:57;97962.22;;;21.88;61.06
63535;BME280;55128;50.230;18.944;2023-05-23T13:56:58;97965.41;;;22.09;65.44
63535;BME280;55128;50.230;18.944;2023-05-23T14:01:59;97964.63;;;21.73;64.25
63535;BME280;55128;50.230;18.944;2023-05-23T14:07:00;97964.19;;;22.30;59.48
63535;BME280;55128;50.230;18.944;2023-05-23T14:12:00;97971.88;;;21.90;63.60
63535;BME280;55128;50.230;18.944;2023-05-23T14:17:00;97955.44;;;21.84;65.90
63535;BME280;55128;50.230;18.944;2023-05-23T14:22:01;97963.66;;;22.26;64.75
63535;BME280;55128;50.230;18.944;2023-05-23T14:27:01;97966.28;;;22.44;64.17
63535;BME280;55128;50.230;18.944;2023-05-23T14:32:01;97973.78;;;21.54;68.52
63535;BME280;55128;50.230;18.944;2023-05-23T14:37:03;97979.19;;;21.36;62.24
63535;BME280;55128;50.230;18.944;2023-05-23T14:42:03;97980.94;;;21.27;61.39
63535;BME280;55128;50.230;18.944;2023-05-23T14:47:04;97977.53;;;22.05;61.86
63535;BME280;55128;50.230;18.944;2023-05-23T14:52:04;97974.53;;;22.17;63.61
63535;BME280;55128;50.230;18.944;2023-05-23T14:57:06;97978.00;;;21.74;60.79
63535;BME280;55128;50.230;18.944;2023-05-23T15:02:07;97965.38;;;21.57;60.54
63535;BME280;55128;50.230;18.944;2023-05-23T15:07:07;97967.09;;;21.84;66.26
63535;BME280;55128;50.230;18.944;2023-05-23T15:12:08;97965.28;;;21.93;68.23
63535;BME280;55128;50.230;18.944;2023-05-23T15:17:09;97968.81;;;22.20;68.36
63535;BME280;55128;50.230;18.944;2023-05-23T15:22:12;97976.91;;;22.11;69.56
63535;BME280;55128;50.230;18.944;2023-05-23T15:27:12;97970.16;;;21.89;67.97
63535;BME280;55128;50.230;18.944;2023-05-23T15:32:12;97977.91;;;22.37;65.88
63535;BME280;55128;50.230;18.944;2023-05-23T15:37:13;97981.72;;;22.26;64.39
63535;BME280;55128;50.230;18.944;2023-05-23T15:42:13;97981.63;;;22.09;64.36
63535;BME280;55128;50.230;18.944;2023-05-23T15:47:13;97979.50;;;21.95;64.30
63535;BME280;55128;50.230;18.944;2023-05-23T15:52:14;97987.28;;;22.24;62.37
63535;BME280;55128;50.230;18.944;2023-05-23T15:57:14;97990.00;;;21.98;61.67
63535;BME280;55128;50.230;18.944;2023-05-23T16:02:15;97984.53;;;21.90;62.86
63535;BME280;55128;50.230;18.944;2023-05-23T16:07:17;97989.56;;;22.11;62.40
63535;BME280;55128;50.230;18.944;2023-05-23T16:12:18;97979.72;;;21.76;63.64
63535;BME280;55128;50.230;18.944;2023-05-23T16:17:18;97969.44;;;21.43;64.15
63535;BME280;55128;50.230;18.944;2023-05-23T16:22:18;97982.88;;;21.35;63.70
63535;BME280;55128;50.230;18.944;2023-05-23T16:27:19;97985.72;;;21.33;64.06
63535;BME280;55128;50.230;18.944;2023-05-23T16:32:19;97973.31;;;21.41;64.41
63535;BME280;55128;50.230;18.944;2023-05-23T16:37:20;97968.53;;;21.16;65.87
63535;BME280;55128;50.230;18.944;2023-05-23T16:42:20;97962.66;;;21.39;65.55
63535;BME280;55128;50.230;18.944;2023-05-23T16:47:21;97967.31;;;20.83;67.85
63535;BME280;55128;50.230;18.944;2023-05-23T16:52:21;97964.03;;;20.89;68.29
63535;BME280;55128;50.230;18.944;2023-05-23T16:57:22;97968.41;;;20.90;68.70
63535;BME280;55128;50.230;18.944;2023-05-23T17:02:22;97968.91;;;21.04;68.33
63535;BME280;55128;50.230;18.944;2023-05-23T17:07:23;97986.03;;;21.12;67.68
63535;BME280;55128;50.230;18.944;2023-05-23T17:12:24;97981.06;;;20.90;69.25
63535;BME280;55128;50.230;18.944;2023-05-23T17:17:25;97988.06;;;20.83;69.44
63535;BME280;55128;50.230;18.944;2023-05-23T17:22:25;97992.66;;;20.45;69.30
63535;BME280;55128;50.230;18.944;2023-05-23T17:27:26;97991.94;;;20.43;69.42
63535;BME280;55128;50.230;18.944;2023-05-23T17:32:26;97997.03;;;20.46;69.70
63535;BME280;55128;50.230;18.944;2023-05-23T17:37:27;97990.56;;;20.29;70.91
63535;BME280;55128;50.230;18.944;2023-05-23T17:42:27;98002.09;;;20.21;71.29
63535;BME280;55128;50.230;18.944;2023-05-23T17:47:27;97995.97;;;20.29;71.84
63535;BME280;55128;50.230;18.944;2023-05-23T17:52:29;98004.38;;;20.26;71.98
63535;BME280;55128;50.230;18.944;2023-05-23T17:57:30;98000.25;;;20.22;71.91
63535;BME280;55128;50.230;18.944;2023-05-23T18:02:30;98001.66;;;20.26;72.51
63535;BME280;55128;50.230;18.944;2023-05-23T18:07:30;98006.22;;;20.15;73.31
63535;BME280;55128;50.230;18.944;2023-05-23T18:12:31;98003.41;;;20.07;72.88
63535;BME280;55128;50.230;18.944;2023-05-23T18:17:32;98006.56;;;19.93;73.97
63535;BME280;55128;50.230;18.944;2023-05-23T18:22:32;98000.50;;;19.81;74.62
63535;BME280;55128;50.230;18.944;2023-05-23T18:27:33;98016.53;;;19.73;75.10
63535;BME280;55128;50.230;18.944;2023-05-23T18:32:33;98029.66;;;19.17;78.76
63535;BME280;55128;50.230;18.944;2023-05-23T18:37:33;98039.59;;;19.36;76.97
63535;BME280;55128;50.230;18.944;2023-05-23T18:42:34;98046.53;;;19.29;76.72
63535;BME280;55128;50.230;18.944;2023-05-23T18:47:35;98055.31;;;19.31;75.87
63535;BME280;55128;50.230;18.944;2023-05-23T18:52:35;98048.63;;;19.16;76.13
63535;BME280;55128;50.230;18.944;2023-05-23T18:57:36;98055.00;;;19.05;76.35
63535;BME280;55128;50.230;18.944;2023-05-23T19:02:37;98059.97;;;19.10;76.58
63535;BME280;55128;50.230;18.944;2023-05-23T19:07:43;98075.66;;;19.04;76.70
63535;BME280;55128;50.230;18.944;2023-05-23T19:12:43;98071.16;;;19.05;76.71
63535;BME280;55128;50.230;18.944;2023-05-23T19:17:43;98066.03;;;18.92;77.46
63535;BME280;55128;50.230;18.944;2023-05-23T19:22:45;98081.50;;;18.79;78.58
63535;BME280;55128;50.230;18.944;2023-05-23T19:27:48;98084.41;;;18.87;78.02
63535;BME280;55128;50.230;18.944;2023-05-23T19:32:49;98077.09;;;18.78;78.39
63535;BME280;55128;50.230;18.944;2023-05-23T19:37:49;98085.31;;;18.76;78.83
63535;BME280;55128;50.230;18.944;2023-05-23T19:42:50;98076.59;;;18.84;78.71
63535;BME280;55128;50.230;18.944;2023-05-23T19:47:50;98083.63;;;18.75;79.02
63535;BME280;55128;50.230;18.944;2023-05-23T19:52:51;98077.72;;;18.51;80.25
63535;BME280;55128;50.230;18.944;2023-05-23T19:57:51;98077.75;;;18.60;79.75
63535;BME280;55128;50.230;18.944;2023-05-23T20:03:00;98084.91;;;18.50;80.41
63535;BME280;55128;50.230;18.944;2023-05-23T20:08:05;98090.66;;;18.36;80.47
63535;BME280;55128;50.230;18.944;2023-05-23T20:13:08;98101.59;;;18.23;80.92
63535;BME280;55128;50.230;18.944;2023-05-23T20:18:10;98095.66;;;18.19;80.64
63535;BME280;55128;50.230;18.944;2023-05-23T20:23:11;98099.91;;;18.01;81.44
63535;BME280;55128;50.230;18.944;2023-05-23T20:28:11;98093.63;;;17.91;81.42
63535;BME280;55128;50.230;18.944;2023-05-23T20:33:12;98102.19;;;17.73;82.09
63535;BME280;55128;50.230;18.944;2023-05-23T20:38:13;98111.44;;;17.80;82.50
63535;BME280;55128;50.230;18.944;2023-05-23T20:43:13;98108.28;;;17.75;81.64
63535;BME280;55128;50.230;18.944;2023-05-23T20:48:14;98114.81;;;17.61;82.41
63535;BME280;55128;50.230;18.944;2023-05-23T20:53:14;98129.09;;;17.62;82.76
63535;BME280;55128;50.230;18.944;2023-05-23T20:58:14;98132.28;;;17.56;83.05
63535;BME280;55128;50.230;18.944;2023-05-23T21:03:16;98132.16;;;17.57;83.80
63535;BME280;55128;50.230;18.944;2023-05-23T21:08:16;98131.75;;;17.62;83.28
63535;BME280;55128;50.230;18.944;2023-05-23T21:13:16;98128.31;;;17.71;83.18
63535;BME280;55128;50.230;18.944;2023-05-23T21:18:17;98132.75;;;17.61;83.44
63535;BME280;55128;50.230;18.944;2023-05-23T21:23:17;98133.75;;;17.48;83.51
63535;BME280;55128;50.230;18.944;2023-05-23T21:28:17;98135.47;;;17.49;83.49
63535;BME280;55128;50.230;18.944;2023-05-23T21:33:18;98135.63;;;17.37;83.87
63535;BME280;55128;50.230;18.944;2023-05-23T21:38:18;98142.59;;;17.28;83.35
63535;BME280;55128;50.230;18.944;2023-05-23T21:43:19;98153.34;;;17.17;84.00
63535;BME280;55128;50.230;18.944;2023-05-23T21:48:19;98149.94;;;17.03;84.37
63535;BME280;55128;50.230;18.944;2023-05-23T21:53:19;98150.19;;;17.00;84.38
63535;BME280;55128;50.230;18.944;2023-05-23T21:58:20;98158.00;;;16.92;84.80
63535;BME280;55128;50.230;18.944;2023-05-23T22:03:20;98161.16;;;16.86;85.13
63535;BME280;55128;50.230;18.944;2023-05-23T22:08:20;98159.94;;;16.90;84.93
63535;BME280;55128;50.230;18.944;2023-05-23T22:13:21;98153.47;;;16.93;85.23
63535;BME280;55128;50.230;18.944;2023-05-23T22:18:21;98163.34;;;16.92;85.01
63535;BME280;55128;50.230;18.944;2023-05-23T22:23:25;98165.31;;;16.90;85.25
63535;BME280;55128;50.230;18.944;2023-05-23T22:28:25;98151.91;;;17.01;84.91
63535;BME280;55128;50.230;18.944;2023-05-23T22:33:26;98158.47;;;17.08;85.12
63535;BME280;55128;50.230;18.944;2023-05-23T22:38:26;98164.31;;;17.02;85.17
63535;BME280;55128;50.230;18.944;2023-05-23T22:43:26;98160.91;;;17.00;85.25
63535;BME280;55128;50.230;18.944;2023-05-23T22:48:28;98151.50;;;16.95;85.16
63535;BME280;55128;50.230;18.944;2023-05-23T22:53:32;98165.91;;;16.94;85.40
63535;BME280;55128;50.230;18.944;2023-05-23T22:58:32;98159.44;;;16.96;85.65
63535;BME280;55128;50.230;18.944;2023-05-23T23:03:33;98152.41;;;16.95;85.94
63535;BME280;55128;50.230;18.944;2023-05-23T23:08:34;98149.81;;;16.94;85.98
63535;BME280;55128;50.230;18.944;2023-05-23T23:13:35;98145.31;;;16.94;86.23
63535;BME280;55128;50.230;18.944;2023-05-23T23:18:35;98153.47;;;16.93;86.82
63535;BME280;55128;50.230;18.944;2023-05-23T23:23:36;98149.22;;;17.01;86.69
63535;BME280;55128;50.230;18.944;2023-05-23T23:28:37;98150.16;;;17.12;86.33
63535;BME280;55128;50.230;18.944;2023-05-23T23:33:37;98148.34;;;17.12;86.17
63535;BME280;55128;50.230;18.944;2023-05-23T23:38:38;98143.09;;;17.22;85.72
63535;BME280;55128;50.230;18.944;2023-05-23T23:43:38;98146.53;;;17.01;87.18
63535;BME280;55128;50.230;18.944;2023-05-23T23:48:38;98144.06;;;17.09;86.48
63535;BME280;55128;50.230;18.944;2023-05-23T23:53:39;98139.44;;;17.12;86.33
63535;BME280;55128;50.230;18.944;2023-05-23T23:58:39;98138.38;;;17.03;87.26
